Thunder radar more information blitzortung!


Löydät sääaseman tiedot myös:

European Weather Network

Finland Weather Exchange

Weather Underground

AWEKAS



Weather Underground säähistoriasivu

Päivittäin yhteenveto Marraskuu 23, 2017 Yksiköt:  Metriset    Englantilaiset   Molemmat
« Edellinen Päivä
Seuraava Päivä »
Päivittäin Viikoittain Kuukausittain Vuosittain Mukautettu
  Korkea: Matala: Keskiarvo:
Lämpötila: -17.8 °C -19.7 °C -18.3 °C
Kastepiste: -17.8 °C -20.2 °C -18.7 °C
Kosteus: Humidity % 93 % 94 %
Tuulen nopeus: 0 km/h 2.6 km/h 10.8 km/h
Tuulenpuuska: 0 km/h - -
Tuuli:- - SSE
Ilmanpaine: 0 hPa 33717.8 hPa -
Sade: 0 mm    
Historical Graphs
 
 
Taulukkotiedot Marraskuu 23, 2017
Aika Lämpötila Kastepiste Ilmanpaine Tuuli Tuulen nopeus Tuulenpuuska Kosteus Sademäärä (tunneittain)
-17.8 °C -17.8 °C 0 hPa Calm     Humidity % 0 mm
00:00 -19.7 °C -20.2 °C 34327.3 hPa ESE 2.6 km/h 15.6 km/h 93 % 0 mm
00:15 -19.7 °C -20.2 °C 34313.7 hPa SE 5.1 km/h 20.8 km/h 93 % 0 mm
00:30 -19.7 °C -20.2 °C 34313.7 hPa SE 2.6 km/h 23.3 km/h 93 % 0 mm
00:45 -19.7 °C -20.2 °C 34313.7 hPa SSE 7.7 km/h 28.5 km/h 93 % 0 mm
01:00 -19.6 °C -20.2 °C 34313.7 hPa SE 5.1 km/h 18.2 km/h 93 % 0 mm
01:30 -19.7 °C -20.2 °C 34303.6 hPa South 5.1 km/h 23.3 km/h 93 % 0 mm
01:45 -19.7 °C -20.2 °C 34293.4 hPa SSE 2.6 km/h 15.6 km/h 93 % 0 mm
02:00 -19.7 °C -20.2 °C 34303.6 hPa SSE 2.6 km/h 20.8 km/h 93 % 0 mm
02:15 -19.7 °C -20.2 °C 34293.4 hPa SE 5.1 km/h 23.3 km/h 93 % 0 mm
02:30 -19.7 °C -20.2 °C 34293.4 hPa North 2.6 km/h 23.3 km/h 93 % 0 mm
03:00 -19.6 °C -20.2 °C 34256.2 hPa SSE 5.1 km/h 18.2 km/h 93 % 0 mm
03:15 -19.7 °C -20.2 °C 34256.2 hPa ESE 5.1 km/h 20.8 km/h 93 % 0 mm
03:30 -19.7 °C -20.2 °C 34246 hPa SE 7.7 km/h 33.6 km/h 93 % 0 mm
03:45 -19.7 °C -20.2 °C 34235.8 hPa ESE 7.7 km/h 20.8 km/h 93 % 0 mm
04:00 -19.7 °C -20.2 °C 34222.3 hPa SSE 5.1 km/h 15.6 km/h 93 % 0 mm
04:15 -19.7 °C -20.2 °C 34212.1 hPa SE 7.7 km/h 28.5 km/h 93 % 0 mm
04:30 -19.6 °C -20.2 °C 34212.1 hPa SE 7.7 km/h 23.3 km/h 93 % 0 mm
05:30 -19.4 °C -19.9 °C 34178.3 hPa SE 7.7 km/h 28.5 km/h 93 % 0 mm
06:00 -19.3 °C -19.9 °C 34164.7 hPa SE 10.3 km/h 31.1 km/h 93 % 0 mm
06:15 -19.3 °C -19.8 °C 34164.7 hPa SE 7.7 km/h 33.6 km/h 93 % 0 mm
06:30 -19.2 °C -19.8 °C 34154.6 hPa SE 7.7 km/h 28.5 km/h 93 % 0 mm
07:00 -19.2 °C -19.7 °C 34130.9 hPa SE 5.1 km/h 18.2 km/h 94 % 0 mm
07:15 -19.3 °C -19.7 °C 34130.9 hPa ESE 7.7 km/h 31.1 km/h 95 % 0 mm
07:45 -19.3 °C -19.7 °C 34107.2 hPa ESE 7.7 km/h 33.6 km/h 95 % 0 mm
08:00 -19.3 °C -19.7 °C 34097 hPa East 7.7 km/h 31.1 km/h 95 % 0 mm
08:15 -19.3 °C -19.7 °C 34097 hPa SE 7.7 km/h 36.2 km/h 95 % 0 mm
08:30 -19.3 °C -19.7 °C 34073.3 hPa ESE 7.7 km/h 18.2 km/h 95 % 0 mm
08:45 -19.3 °C -19.7 °C 34073.3 hPa ESE 7.7 km/h 25.9 km/h 95 % 0 mm
09:00 -19.3 °C -19.7 °C 34063.2 hPa ESE 10.3 km/h 33.6 km/h 95 % 0 mm
09:30 -19.3 °C -19.7 °C 34039.5 hPa SE 10.3 km/h 49.2 km/h 95 % 0 mm
09:45 -19.2 °C -19.6 °C 34029.3 hPa ESE 10.3 km/h 25.9 km/h 95 % 0 mm
10:00 -19.2 °C -19.6 °C 34015.8 hPa SSE 10.3 km/h 33.6 km/h 95 % 0 mm
10:15 -19.2 °C -19.5 °C 34005.6 hPa SE 10.3 km/h 23.3 km/h 96 % 0 mm
10:30 -19.2 °C -19.5 °C 34005.6 hPa SE 10.3 km/h 31.1 km/h 96 % 0 mm
10:45 -19.1 °C -19.4 °C 33981.9 hPa ESE 5.1 km/h 28.5 km/h 96 % 0 mm
11:00 -19.1 °C -19.4 °C 33981.9 hPa SE 7.7 km/h 28.5 km/h 96 % 0 mm
11:15 -19.1 °C -19.3 °C 33958.2 hPa SSE 10.3 km/h 31.1 km/h 96 % 0 mm
11:30 -19 °C -19.3 °C 33948 hPa SSE 10.3 km/h 28.5 km/h 96 % 0 mm
11:45 -18.9 °C -19.2 °C 33937.9 hPa SSE 10.3 km/h 41.4 km/h 97 % 0 mm
12:00 -18.8 °C -19.1 °C 33924.3 hPa SSE 10.3 km/h 31.1 km/h 97 % 0 mm
12:15 -18.7 °C -18.9 °C 33914.2 hPa SSE 10.3 km/h 33.6 km/h 97 % 0 mm
12:30 -18.6 °C -18.9 °C 33900.6 hPa SSE 15.6 km/h 41.4 km/h 96 % 0 mm
12:45 -18.5 °C -18.8 °C 33900.6 hPa SE 12.9 km/h 38.8 km/h 96 % 0 mm
13:00 -18.4 °C -18.7 °C 33890.5 hPa SE 12.9 km/h 33.6 km/h 96 % 0 mm
13:15 -18.3 °C -18.6 °C 33880.3 hPa SSE 12.9 km/h 44.1 km/h 96 % 0 mm
13:30 -18.2 °C -18.6 °C 33866.8 hPa SSE 12.9 km/h 36.2 km/h 95 % 0 mm
13:45 -18 °C -18.4 °C 33866.8 hPa SSE 15.6 km/h 57 km/h 95 % 0 mm
14:00 -17.9 °C -18.3 °C 33856.6 hPa SSE 12.9 km/h 41.4 km/h 95 % 0 mm
14:15 -17.7 °C -18.1 °C 33843.1 hPa South 15.6 km/h 62.1 km/h 95 % 0 mm
14:30 -17.6 °C -18 °C 33832.9 hPa SSE 18.2 km/h 57 km/h 95 % 0 mm
14:45 -17.6 °C -18.1 °C 33832.9 hPa SSE 15.6 km/h 54.4 km/h 94 % 0 mm
15:00 -17.6 °C -18 °C 33832.9 hPa South 15.6 km/h 41.4 km/h 94 % 0 mm
15:45 -17.4 °C -17.8 °C 33832.9 hPa South 18.2 km/h 41.4 km/h 94 % 0 mm
16:00 -17.3 °C -17.8 °C 33809.2 hPa South 15.6 km/h 41.4 km/h 94 % 0 mm
16:15 -17.3 °C -17.7 °C 33809.2 hPa SSE 18.2 km/h 57 km/h 95 % 0 mm
16:30 -17.3 °C -17.7 °C 33809.2 hPa South 18.2 km/h 62.1 km/h 95 % 0 mm
16:45 -17.3 °C -17.7 °C 33799.1 hPa SSE 12.9 km/h 38.8 km/h 96 % 0 mm
17:00 -17.3 °C -17.6 °C 33788.9 hPa South 15.6 km/h 49.2 km/h 96 % 0 mm
17:15 -17.3 °C -17.5 °C 33788.9 hPa SSE 15.6 km/h 46.7 km/h 97 % 0 mm
17:30 -17.2 °C -17.4 °C 33788.9 hPa South 15.6 km/h 38.8 km/h 97 % 0 mm
17:45 -17.1 °C -17.4 °C 33775.4 hPa SSE 15.6 km/h 51.8 km/h 97 % 0 mm
18:00 -17.1 °C -17.3 °C 33775.4 hPa South 12.9 km/h 31.1 km/h 97 % 0 mm
18:15 -17 °C -17.2 °C 33765.2 hPa South 18.2 km/h 38.8 km/h 97 % 0 mm
18:30 -16.9 °C -17.2 °C 33775.4 hPa South 15.6 km/h 46.7 km/h 97 % 0 mm
18:45 -16.8 °C -17.1 °C 33765.2 hPa South 12.9 km/h 36.2 km/h 97 % 0 mm
19:15 -16.8 °C -17 °C 33765.2 hPa South 15.6 km/h 36.2 km/h 97 % 0 mm
19:30 -16.7 °C -16.9 °C 33765.2 hPa South 12.9 km/h 33.6 km/h 97 % 0 mm
19:45 -16.7 °C -16.9 °C 33751.6 hPa SSE 12.9 km/h 36.2 km/h 97 % 0 mm
20:00 -16.6 °C -16.8 °C 33751.6 hPa South 15.6 km/h 36.2 km/h 97 % 0 mm
20:30 -16.5 °C -16.7 °C 33751.6 hPa South 15.6 km/h 54.4 km/h 97 % 0 mm
21:00 -16.5 °C -16.7 °C 33765.2 hPa SSE 15.6 km/h 51.8 km/h 97 % 0 mm
21:15 -16.5 °C -16.7 °C 33765.2 hPa South 15.6 km/h 46.7 km/h 97 % 0 mm
21:30 -16.5 °C -16.7 °C 33765.2 hPa SSE 12.9 km/h 41.4 km/h 97 % 0 mm
21:45 -16.5 °C -16.7 °C 33751.6 hPa SSE 12.9 km/h 33.6 km/h 97 % 0 mm
22:00 -16.5 °C -16.7 °C 33765.2 hPa South 12.9 km/h 41.4 km/h 97 % 0 mm
22:30 -16.5 °C -16.7 °C 33765.2 hPa South 10.3 km/h 31.1 km/h 97 % 0 mm
22:45 -16.5 °C -16.7 °C 33765.2 hPa South 12.9 km/h 46.7 km/h 97 % 0 mm
23:00 -16.5 °C -16.7 °C 33751.6 hPa South 15.6 km/h 51.8 km/h 97 % 0 mm
23:30 -16.5 °C -16.7 °C 33731.3 hPa SSE 15.6 km/h 44.1 km/h 97 % 0 mm
23:45 -16.5 °C -16.7 °C 33717.8 hPa SSE 12.9 km/h 49.2 km/h 97 % 0 mm
Esan sääasema
Terveisin Weather Underground - 2.75 mb

Alkuperäinen skripti  Jim McMurry - jmcmurry@mwt.net Sovitettu myös templatelle  Wim van der Kuil - Leuven-Template.eu

Laitteet joita käytämme:

Sääasema
Davis VP2

Sääasemaohjelma
Cumulus

Sääaseman tietokone
Asus EeePC

Palveluntarjoaja
Suncomet

Davis VP2

Cumulus

Asus EeePC

Suncomet